sensor_id;sensor_type;location;lat;lon;timestamp;P1;durP1;ratioP1;P2;durP2;ratioP2
5795;SDS011;2924;51.458;7.046;2024-02-21T00:00:14;24.37;;;10.67;;
5795;SDS011;2924;51.458;7.046;2024-02-21T00:02:40;34.53;;;11.00;;
5795;SDS011;2924;51.458;7.046;2024-02-21T00:05:06;19.40;;;8.83;;
5795;SDS011;2924;51.458;7.046;2024-02-21T00:07:32;28.30;;;11.00;;
5795;SDS011;2924;51.458;7.046;2024-02-21T00:09:57;30.03;;;11.10;;
5795;SDS011;2924;51.458;7.046;2024-02-21T00:12:23;31.80;;;11.30;;
5795;SDS011;2924;51.458;7.046;2024-02-21T00:14:49;27.93;;;11.23;;
5795;SDS011;2924;51.458;7.046;2024-02-21T00:17:15;20.20;;;10.93;;
5795;SDS011;2924;51.458;7.046;2024-02-21T00:19:40;21.60;;;10.53;;
5795;SDS011;2924;51.458;7.046;2024-02-21T00:22:06;26.53;;;10.87;;
5795;SDS011;2924;51.458;7.046;2024-02-21T00:24:31;28.10;;;10.60;;
5795;SDS011;2924;51.458;7.046;2024-02-21T00:26:57;24.57;;;10.50;;
5795;SDS011;2924;51.458;7.046;2024-02-21T00:29:23;27.03;;;10.57;;
5795;SDS011;2924;51.458;7.046;2024-02-21T00:31:48;27.70;;;11.87;;
5795;SDS011;2924;51.458;7.046;2024-02-21T00:34:14;28.20;;;11.03;;
5795;SDS011;2924;51.458;7.046;2024-02-21T00:36:39;27.43;;;12.43;;
5795;SDS011;2924;51.458;7.046;2024-02-21T00:39:06;25.53;;;11.00;;
5795;SDS011;2924;51.458;7.046;2024-02-21T00:41:32;29.33;;;11.90;;
5795;SDS011;2924;51.458;7.046;2024-02-21T00:43:58;26.37;;;10.70;;
5795;SDS011;2924;51.458;7.046;2024-02-21T00:46:23;22.00;;;9.97;;
5795;SDS011;2924;51.458;7.046;2024-02-21T00:48:49;25.27;;;10.77;;
5795;SDS011;2924;51.458;7.046;2024-02-21T00:51:15;17.83;;;11.00;;
5795;SDS011;2924;51.458;7.046;2024-02-21T00:53:41;30.60;;;10.60;;
5795;SDS011;2924;51.458;7.046;2024-02-21T00:56:07;31.40;;;11.80;;
5795;SDS011;2924;51.458;7.046;2024-02-21T00:58:33;26.27;;;11.07;;
5795;SDS011;2924;51.458;7.046;2024-02-21T01:01:00;24.73;;;11.90;;
5795;SDS011;2924;51.458;7.046;2024-02-21T01:03:26;33.37;;;11.50;;
5795;SDS011;2924;51.458;7.046;2024-02-21T01:05:52;30.67;;;11.80;;
5795;SDS011;2924;51.458;7.046;2024-02-21T01:08:17;34.10;;;13.30;;
5795;SDS011;2924;51.458;7.046;2024-02-21T01:10:43;26.47;;;11.30;;
5795;SDS011;2924;51.458;7.046;2024-02-21T01:13:08;24.57;;;10.03;;
5795;SDS011;2924;51.458;7.046;2024-02-21T01:15:34;29.40;;;11.80;;
5795;SDS011;2924;51.458;7.046;2024-02-21T01:18:00;19.63;;;10.23;;
5795;SDS011;2924;51.458;7.046;2024-02-21T01:20:26;23.83;;;12.00;;
5795;SDS011;2924;51.458;7.046;2024-02-21T01:22:52;24.47;;;10.90;;
5795;SDS011;2924;51.458;7.046;2024-02-21T01:25:17;21.77;;;11.00;;
5795;SDS011;2924;51.458;7.046;2024-02-21T01:27:43;25.37;;;10.40;;
5795;SDS011;2924;51.458;7.046;2024-02-21T01:30:08;28.63;;;10.13;;
5795;SDS011;2924;51.458;7.046;2024-02-21T01:32:35;26.77;;;10.70;;
5795;SDS011;2924;51.458;7.046;2024-02-21T01:35:04;24.17;;;10.53;;
5795;SDS011;2924;51.458;7.046;2024-02-21T01:37:30;25.37;;;10.87;;
5795;SDS011;2924;51.458;7.046;2024-02-21T01:39:55;26.30;;;10.20;;
5795;SDS011;2924;51.458;7.046;2024-02-21T01:42:21;24.20;;;11.17;;
5795;SDS011;2924;51.458;7.046;2024-02-21T01:44:46;20.60;;;10.87;;
5795;SDS011;2924;51.458;7.046;2024-02-21T01:47:12;20.87;;;9.90;;
5795;SDS011;2924;51.458;7.046;2024-02-21T01:49:40;26.83;;;10.87;;
5795;SDS011;2924;51.458;7.046;2024-02-21T01:52:06;33.90;;;11.20;;
5795;SDS011;2924;51.458;7.046;2024-02-21T01:54:34;22.23;;;11.93;;
5795;SDS011;2924;51.458;7.046;2024-02-21T01:56:59;31.63;;;10.17;;
5795;SDS011;2924;51.458;7.046;2024-02-21T01:59:26;30.87;;;10.83;;
5795;SDS011;2924;51.458;7.046;2024-02-21T02:01:51;35.60;;;11.57;;
5795;SDS011;2924;51.458;7.046;2024-02-21T02:04:18;32.07;;;10.90;;
5795;SDS011;2924;51.458;7.046;2024-02-21T02:06:45;30.47;;;12.23;;
5795;SDS011;2924;51.458;7.046;2024-02-21T02:09:11;22.73;;;9.47;;
5795;SDS011;2924;51.458;7.046;2024-02-21T02:11:37;25.03;;;9.40;;
5795;SDS011;2924;51.458;7.046;2024-02-21T02:14:02;27.57;;;11.37;;
5795;SDS011;2924;51.458;7.046;2024-02-21T02:16:28;26.53;;;10.70;;
5795;SDS011;2924;51.458;7.046;2024-02-21T02:18:53;26.30;;;10.70;;
5795;SDS011;2924;51.458;7.046;2024-02-21T02:21:29;20.33;;;10.00;;
5795;SDS011;2924;51.458;7.046;2024-02-21T02:23:57;42.43;;;11.53;;
5795;SDS011;2924;51.458;7.046;2024-02-21T02:26:24;32.13;;;11.83;;
5795;SDS011;2924;51.458;7.046;2024-02-21T02:28:50;25.67;;;12.30;;
5795;SDS011;2924;51.458;7.046;2024-02-21T02:31:15;28.20;;;10.70;;
5795;SDS011;2924;51.458;7.046;2024-02-21T02:33:42;29.13;;;10.67;;
5795;SDS011;2924;51.458;7.046;2024-02-21T02:36:09;26.13;;;10.53;;
5795;SDS011;2924;51.458;7.046;2024-02-21T02:38:35;32.87;;;11.00;;
5795;SDS011;2924;51.458;7.046;2024-02-21T02:41:00;28.23;;;10.50;;
5795;SDS011;2924;51.458;7.046;2024-02-21T02:43:26;22.73;;;10.87;;
5795;SDS011;2924;51.458;7.046;2024-02-21T02:45:51;27.83;;;10.40;;
5795;SDS011;2924;51.458;7.046;2024-02-21T02:48:17;20.70;;;10.37;;
5795;SDS011;2924;51.458;7.046;2024-02-21T02:50:44;31.33;;;12.00;;
5795;SDS011;2924;51.458;7.046;2024-02-21T02:53:11;28.47;;;10.07;;
5795;SDS011;2924;51.458;7.046;2024-02-21T02:55:36;23.53;;;10.57;;
5795;SDS011;2924;51.458;7.046;2024-02-21T02:58:02;26.20;;;10.10;;
5795;SDS011;2924;51.458;7.046;2024-02-21T03:00:28;30.67;;;10.83;;
5795;SDS011;2924;51.458;7.046;2024-02-21T03:02:53;19.50;;;8.73;;
5795;SDS011;2924;51.458;7.046;2024-02-21T03:05:20;40.60;;;11.00;;
5795;SDS011;2924;51.458;7.046;2024-02-21T03:07:46;32.23;;;9.17;;
5795;SDS011;2924;51.458;7.046;2024-02-21T03:10:13;20.53;;;9.53;;
5795;SDS011;2924;51.458;7.046;2024-02-21T03:12:41;24.33;;;8.90;;
5795;SDS011;2924;51.458;7.046;2024-02-21T03:15:07;30.70;;;10.33;;
5795;SDS011;2924;51.458;7.046;2024-02-21T03:20:54;16.93;;;9.47;;
5795;SDS011;2924;51.458;7.046;2024-02-21T03:23:20;24.73;;;9.80;;
5795;SDS011;2924;51.458;7.046;2024-02-21T03:25:46;18.90;;;8.60;;
5795;SDS011;2924;51.458;7.046;2024-02-21T03:28:11;18.93;;;9.70;;
5795;SDS011;2924;51.458;7.046;2024-02-21T03:30:37;20.13;;;8.67;;
5795;SDS011;2924;51.458;7.046;2024-02-21T03:33:03;18.67;;;8.70;;
5795;SDS011;2924;51.458;7.046;2024-02-21T03:35:28;28.20;;;9.13;;
5795;SDS011;2924;51.458;7.046;2024-02-21T03:37:54;23.70;;;9.23;;
5795;SDS011;2924;51.458;7.046;2024-02-21T03:40:20;24.07;;;10.03;;
5795;SDS011;2924;51.458;7.046;2024-02-21T03:42:45;24.83;;;8.23;;
5795;SDS011;2924;51.458;7.046;2024-02-21T03:45:11;17.67;;;7.97;;
5795;SDS011;2924;51.458;7.046;2024-02-21T03:47:36;18.13;;;9.10;;
5795;SDS011;2924;51.458;7.046;2024-02-21T03:50:02;20.03;;;8.77;;
5795;SDS011;2924;51.458;7.046;2024-02-21T03:52:28;21.13;;;8.90;;
5795;SDS011;2924;51.458;7.046;2024-02-21T03:54:53;25.87;;;10.60;;
5795;SDS011;2924;51.458;7.046;2024-02-21T03:57:20;25.33;;;9.43;;
5795;SDS011;2924;51.458;7.046;2024-02-21T03:59:46;33.60;;;11.33;;
5795;SDS011;2924;51.458;7.046;2024-02-21T04:02:14;21.27;;;8.40;;
5795;SDS011;2924;51.458;7.046;2024-02-21T04:04:42;24.60;;;9.47;;
5795;SDS011;2924;51.458;7.046;2024-02-21T04:07:12;20.27;;;9.07;;
5795;SDS011;2924;51.458;7.046;2024-02-21T04:09:38;20.90;;;8.67;;
5795;SDS011;2924;51.458;7.046;2024-02-21T04:12:03;16.40;;;8.27;;
5795;SDS011;2924;51.458;7.046;2024-02-21T04:14:29;23.43;;;8.47;;
5795;SDS011;2924;51.458;7.046;2024-02-21T04:16:55;21.43;;;9.20;;
5795;SDS011;2924;51.458;7.046;2024-02-21T04:19:21;22.60;;;9.27;;
5795;SDS011;2924;51.458;7.046;2024-02-21T04:21:46;20.40;;;8.70;;
5795;SDS011;2924;51.458;7.046;2024-02-21T04:24:12;16.53;;;9.37;;
5795;SDS011;2924;51.458;7.046;2024-02-21T04:26:37;16.67;;;8.30;;
5795;SDS011;2924;51.458;7.046;2024-02-21T04:29:03;21.17;;;6.83;;
5795;SDS011;2924;51.458;7.046;2024-02-21T04:31:28;17.53;;;6.80;;
5795;SDS011;2924;51.458;7.046;2024-02-21T04:33:54;17.83;;;7.50;;
5795;SDS011;2924;51.458;7.046;2024-02-21T04:36:20;16.80;;;9.30;;
5795;SDS011;2924;51.458;7.046;2024-02-21T04:38:46;20.87;;;8.20;;
5795;SDS011;2924;51.458;7.046;2024-02-21T04:41:11;20.77;;;8.47;;
5795;SDS011;2924;51.458;7.046;2024-02-21T04:43:37;16.90;;;7.20;;
5795;SDS011;2924;51.458;7.046;2024-02-21T04:46:02;18.50;;;8.13;;
5795;SDS011;2924;51.458;7.046;2024-02-21T04:48:29;22.30;;;8.77;;
5795;SDS011;2924;51.458;7.046;2024-02-21T04:50:54;17.23;;;7.40;;
5795;SDS011;2924;51.458;7.046;2024-02-21T04:53:20;26.30;;;8.37;;
5795;SDS011;2924;51.458;7.046;2024-02-21T04:55:46;18.67;;;8.10;;
5795;SDS011;2924;51.458;7.046;2024-02-21T04:58:12;17.43;;;7.80;;
5795;SDS011;2924;51.458;7.046;2024-02-21T05:00:37;26.13;;;7.97;;
5795;SDS011;2924;51.458;7.046;2024-02-21T05:03:03;13.53;;;7.87;;
5795;SDS011;2924;51.458;7.046;2024-02-21T05:05:29;23.90;;;7.63;;
5795;SDS011;2924;51.458;7.046;2024-02-21T05:07:54;18.67;;;7.97;;
5795;SDS011;2924;51.458;7.046;2024-02-21T05:10:20;12.07;;;5.90;;
5795;SDS011;2924;51.458;7.046;2024-02-21T05:12:46;18.50;;;6.90;;
5795;SDS011;2924;51.458;7.046;2024-02-21T05:15:11;26.27;;;7.90;;
5795;SDS011;2924;51.458;7.046;2024-02-21T05:17:37;22.87;;;6.73;;
5795;SDS011;2924;51.458;7.046;2024-02-21T05:20:02;14.00;;;5.80;;
5795;SDS011;2924;51.458;7.046;2024-02-21T05:22:28;16.10;;;6.37;;
5795;SDS011;2924;51.458;7.046;2024-02-21T05:24:54;14.13;;;7.37;;
5795;SDS011;2924;51.458;7.046;2024-02-21T05:27:20;19.90;;;6.87;;
5795;SDS011;2924;51.458;7.046;2024-02-21T05:29:45;14.70;;;6.27;;
5795;SDS011;2924;51.458;7.046;2024-02-21T05:32:11;18.03;;;6.70;;
5795;SDS011;2924;51.458;7.046;2024-02-21T05:34:37;15.90;;;5.97;;
5795;SDS011;2924;51.458;7.046;2024-02-21T05:37:03;15.70;;;6.30;;
5795;SDS011;2924;51.458;7.046;2024-02-21T05:39:28;10.60;;;5.53;;
5795;SDS011;2924;51.458;7.046;2024-02-21T05:41:54;15.07;;;6.13;;
5795;SDS011;2924;51.458;7.046;2024-02-21T05:44:20;16.00;;;6.60;;
5795;SDS011;2924;51.458;7.046;2024-02-21T05:46:47;34.03;;;6.10;;
5795;SDS011;2924;51.458;7.046;2024-02-21T05:49:12;11.10;;;5.80;;
5795;SDS011;2924;51.458;7.046;2024-02-21T05:51:38;12.67;;;5.60;;
5795;SDS011;2924;51.458;7.046;2024-02-21T05:54:04;13.20;;;5.97;;
5795;SDS011;2924;51.458;7.046;2024-02-21T05:56:29;20.27;;;6.10;;
5795;SDS011;2924;51.458;7.046;2024-02-21T05:58:55;13.00;;;5.80;;
5795;SDS011;2924;51.458;7.046;2024-02-21T06:01:20;10.10;;;4.87;;
5795;SDS011;2924;51.458;7.046;2024-02-21T06:03:46;15.43;;;5.60;;
5795;SDS011;2924;51.458;7.046;2024-02-21T06:06:12;26.77;;;7.07;;
5795;SDS011;2924;51.458;7.046;2024-02-21T06:08:39;11.60;;;5.47;;
5795;SDS011;2924;51.458;7.046;2024-02-21T06:11:05;9.00;;;4.43;;
5795;SDS011;2924;51.458;7.046;2024-02-21T06:13:31;15.27;;;5.47;;
5795;SDS011;2924;51.458;7.046;2024-02-21T06:15:56;11.50;;;4.80;;
5795;SDS011;2924;51.458;7.046;2024-02-21T06:18:22;10.10;;;4.67;;
5795;SDS011;2924;51.458;7.046;2024-02-21T06:20:48;11.77;;;5.60;;
5795;SDS011;2924;51.458;7.046;2024-02-21T06:23:14;13.13;;;5.23;;
5795;SDS011;2924;51.458;7.046;2024-02-21T06:25:44;12.03;;;4.20;;
5795;SDS011;2924;51.458;7.046;2024-02-21T06:28:11;10.30;;;5.37;;
5795;SDS011;2924;51.458;7.046;2024-02-21T06:30:36;13.90;;;5.60;;
5795;SDS011;2924;51.458;7.046;2024-02-21T06:33:02;12.77;;;5.57;;
5795;SDS011;2924;51.458;7.046;2024-02-21T06:35:28;12.63;;;5.57;;
5795;SDS011;2924;51.458;7.046;2024-02-21T06:37:54;11.80;;;5.00;;
5795;SDS011;2924;51.458;7.046;2024-02-21T06:40:21;11.70;;;5.17;;
5795;SDS011;2924;51.458;7.046;2024-02-21T06:42:47;15.50;;;4.93;;
5795;SDS011;2924;51.458;7.046;2024-02-21T06:45:13;19.80;;;6.87;;
5795;SDS011;2924;51.458;7.046;2024-02-21T06:47:38;16.50;;;5.57;;
5795;SDS011;2924;51.458;7.046;2024-02-21T06:50:04;10.10;;;4.23;;
5795;SDS011;2924;51.458;7.046;2024-02-21T06:52:30;17.70;;;5.37;;
5795;SDS011;2924;51.458;7.046;2024-02-21T06:54:56;11.10;;;5.10;;
5795;SDS011;2924;51.458;7.046;2024-02-21T06:57:22;11.40;;;4.67;;
5795;SDS011;2924;51.458;7.046;2024-02-21T06:59:47;15.10;;;5.03;;
5795;SDS011;2924;51.458;7.046;2024-02-21T07:02:13;13.63;;;6.00;;
5795;SDS011;2924;51.458;7.046;2024-02-21T07:04:38;13.10;;;4.97;;
5795;SDS011;2924;51.458;7.046;2024-02-21T07:07:04;14.20;;;4.47;;
5795;SDS011;2924;51.458;7.046;2024-02-21T07:09:30;16.60;;;5.03;;
5795;SDS011;2924;51.458;7.046;2024-02-21T07:11:57;14.90;;;5.10;;
5795;SDS011;2924;51.458;7.046;2024-02-21T07:14:23;12.80;;;4.37;;
5795;SDS011;2924;51.458;7.046;2024-02-21T07:16:49;12.37;;;5.37;;
5795;SDS011;2924;51.458;7.046;2024-02-21T07:19:14;14.70;;;4.40;;
5795;SDS011;2924;51.458;7.046;2024-02-21T07:21:40;13.23;;;5.10;;
5795;SDS011;2924;51.458;7.046;2024-02-21T07:24:07;9.50;;;4.43;;
5795;SDS011;2924;51.458;7.046;2024-02-21T07:26:33;14.20;;;5.50;;
5795;SDS011;2924;51.458;7.046;2024-02-21T07:28:58;19.83;;;6.60;;
5795;SDS011;2924;51.458;7.046;2024-02-21T07:31:24;8.20;;;4.70;;
5795;SDS011;2924;51.458;7.046;2024-02-21T07:33:50;8.80;;;4.70;;
5795;SDS011;2924;51.458;7.046;2024-02-21T07:36:15;12.23;;;4.97;;
5795;SDS011;2924;51.458;7.046;2024-02-21T07:38:49;8.47;;;4.43;;
5795;SDS011;2924;51.458;7.046;2024-02-21T07:41:15;7.03;;;4.20;;
5795;SDS011;2924;51.458;7.046;2024-02-21T07:43:41;14.93;;;4.43;;
5795;SDS011;2924;51.458;7.046;2024-02-21T07:46:06;17.33;;;4.10;;
5795;SDS011;2924;51.458;7.046;2024-02-21T07:48:32;11.80;;;4.60;;
5795;SDS011;2924;51.458;7.046;2024-02-21T07:50:57;10.73;;;5.43;;
5795;SDS011;2924;51.458;7.046;2024-02-21T07:53:23;6.70;;;4.30;;
5795;SDS011;2924;51.458;7.046;2024-02-21T07:55:48;11.23;;;4.97;;
5795;SDS011;2924;51.458;7.046;2024-02-21T07:58:14;10.30;;;4.47;;
5795;SDS011;2924;51.458;7.046;2024-02-21T08:00:40;9.57;;;4.30;;
5795;SDS011;2924;51.458;7.046;2024-02-21T08:03:05;13.07;;;4.33;;
5795;SDS011;2924;51.458;7.046;2024-02-21T08:05:33;12.10;;;4.40;;
5795;SDS011;2924;51.458;7.046;2024-02-21T08:07:59;8.87;;;4.00;;
5795;SDS011;2924;51.458;7.046;2024-02-21T08:10:25;9.50;;;4.13;;
5795;SDS011;2924;51.458;7.046;2024-02-21T08:12:50;6.20;;;3.60;;
5795;SDS011;2924;51.458;7.046;2024-02-21T08:15:16;11.40;;;4.60;;
5795;SDS011;2924;51.458;7.046;2024-02-21T08:17:41;6.50;;;3.97;;
5795;SDS011;2924;51.458;7.046;2024-02-21T08:20:07;11.97;;;4.23;;
5795;SDS011;2924;51.458;7.046;2024-02-21T08:22:33;12.93;;;3.50;;
5795;SDS011;2924;51.458;7.046;2024-02-21T08:24:59;7.50;;;3.50;;
5795;SDS011;2924;51.458;7.046;2024-02-21T08:27:24;10.83;;;3.40;;
5795;SDS011;2924;51.458;7.046;2024-02-21T08:29:50;6.63;;;3.03;;
5795;SDS011;2924;51.458;7.046;2024-02-21T08:32:15;8.97;;;3.10;;
5795;SDS011;2924;51.458;7.046;2024-02-21T08:34:41;12.43;;;3.17;;
5795;SDS011;2924;51.458;7.046;2024-02-21T08:37:07;9.23;;;3.40;;
5795;SDS011;2924;51.458;7.046;2024-02-21T08:39:33;13.83;;;3.70;;
5795;SDS011;2924;51.458;7.046;2024-02-21T08:41:58;6.90;;;3.53;;
5795;SDS011;2924;51.458;7.046;2024-02-21T08:44:24;4.70;;;3.70;;
5795;SDS011;2924;51.458;7.046;2024-02-21T08:46:52;17.50;;;4.20;;
5795;SDS011;2924;51.458;7.046;2024-02-21T08:49:18;10.33;;;3.80;;
5795;SDS011;2924;51.458;7.046;2024-02-21T08:51:43;8.23;;;3.63;;
5795;SDS011;2924;51.458;7.046;2024-02-21T08:54:09;8.23;;;3.90;;
5795;SDS011;2924;51.458;7.046;2024-02-21T08:56:34;12.47;;;4.10;;
5795;SDS011;2924;51.458;7.046;2024-02-21T08:59:00;8.20;;;3.67;;
5795;SDS011;2924;51.458;7.046;2024-02-21T09:01:26;14.27;;;3.80;;
5795;SDS011;2924;51.458;7.046;2024-02-21T09:03:52;12.73;;;4.50;;
5795;SDS011;2924;51.458;7.046;2024-02-21T09:06:18;13.23;;;3.17;;
5795;SDS011;2924;51.458;7.046;2024-02-21T09:08:47;9.50;;;4.57;;
5795;SDS011;2924;51.458;7.046;2024-02-21T09:11:12;12.03;;;4.50;;
5795;SDS011;2924;51.458;7.046;2024-02-21T09:13:38;7.27;;;4.00;;
5795;SDS011;2924;51.458;7.046;2024-02-21T09:16:04;8.87;;;3.97;;
5795;SDS011;2924;51.458;7.046;2024-02-21T09:18:30;12.20;;;4.33;;
5795;SDS011;2924;51.458;7.046;2024-02-21T09:20:56;20.03;;;4.27;;
5795;SDS011;2924;51.458;7.046;2024-02-21T09:23:25;11.63;;;4.20;;
5795;SDS011;2924;51.458;7.046;2024-02-21T09:25:51;13.40;;;3.70;;
5795;SDS011;2924;51.458;7.046;2024-02-21T09:28:16;10.30;;;3.73;;
5795;SDS011;2924;51.458;7.046;2024-02-21T09:30:42;5.97;;;3.20;;
5795;SDS011;2924;51.458;7.046;2024-02-21T09:33:08;9.60;;;3.37;;
5795;SDS011;2924;51.458;7.046;2024-02-21T09:35:33;7.23;;;3.10;;
5795;SDS011;2924;51.458;7.046;2024-02-21T09:37:59;9.53;;;3.70;;
5795;SDS011;2924;51.458;7.046;2024-02-21T09:40:25;8.63;;;3.37;;
5795;SDS011;2924;51.458;7.046;2024-02-21T09:42:52;13.43;;;4.37;;
5795;SDS011;2924;51.458;7.046;2024-02-21T09:45:32;15.90;;;3.90;;
5795;SDS011;2924;51.458;7.046;2024-02-21T09:50:47;14.13;;;4.80;;
5795;SDS011;2924;51.458;7.046;2024-02-21T09:53:15;6.00;;;3.40;;
5795;SDS011;2924;51.458;7.046;2024-02-21T09:55:41;9.07;;;3.60;;
5795;SDS011;2924;51.458;7.046;2024-02-21T09:58:08;8.50;;;3.90;;
5795;SDS011;2924;51.458;7.046;2024-02-21T10:00:37;6.10;;;3.53;;
5795;SDS011;2924;51.458;7.046;2024-02-21T10:03:03;11.43;;;4.13;;
5795;SDS011;2924;51.458;7.046;2024-02-21T10:05:35;11.60;;;3.83;;
5795;SDS011;2924;51.458;7.046;2024-02-21T10:08:02;8.23;;;3.10;;
5795;SDS011;2924;51.458;7.046;2024-02-21T10:10:28;9.90;;;4.93;;
5795;SDS011;2924;51.458;7.046;2024-02-21T10:12:54;10.60;;;4.37;;
5795;SDS011;2924;51.458;7.046;2024-02-21T10:15:21;6.40;;;4.70;;
5795;SDS011;2924;51.458;7.046;2024-02-21T10:17:48;11.83;;;5.80;;
5795;SDS011;2924;51.458;7.046;2024-02-21T10:20:23;11.77;;;5.33;;
5795;SDS011;2924;51.458;7.046;2024-02-21T10:22:59;14.50;;;4.60;;
5795;SDS011;2924;51.458;7.046;2024-02-21T10:25:33;9.97;;;4.27;;
5795;SDS011;2924;51.458;7.046;2024-02-21T10:28:00;5.30;;;3.90;;
5795;SDS011;2924;51.458;7.046;2024-02-21T10:30:26;20.17;;;5.33;;
5795;SDS011;2924;51.458;7.046;2024-02-21T10:32:55;8.17;;;3.87;;
5795;SDS011;2924;51.458;7.046;2024-02-21T10:35:30;15.47;;;4.30;;
5795;SDS011;2924;51.458;7.046;2024-02-21T10:37:57;11.97;;;3.20;;
5795;SDS011;2924;51.458;7.046;2024-02-21T10:40:29;9.43;;;3.57;;
5795;SDS011;2924;51.458;7.046;2024-02-21T10:42:59;8.73;;;3.33;;
5795;SDS011;2924;51.458;7.046;2024-02-21T10:45:34;10.87;;;3.63;;
5795;SDS011;2924;51.458;7.046;2024-02-21T10:53:29;6.80;;;2.80;;
5795;SDS011;2924;51.458;7.046;2024-02-21T10:56:11;6.90;;;3.00;;
5795;SDS011;2924;51.458;7.046;2024-02-21T10:59:03;17.63;;;4.70;;
5795;SDS011;2924;51.458;7.046;2024-02-21T11:01:30;5.50;;;2.70;;
5795;SDS011;2924;51.458;7.046;2024-02-21T11:04:04;5.43;;;2.80;;
5795;SDS011;2924;51.458;7.046;2024-02-21T11:06:31;10.13;;;3.63;;
5795;SDS011;2924;51.458;7.046;2024-02-21T11:09:08;14.60;;;3.90;;
5795;SDS011;2924;51.458;7.046;2024-02-21T11:11:38;7.70;;;2.53;;
5795;SDS011;2924;51.458;7.046;2024-02-21T11:14:05;9.87;;;3.13;;
5795;SDS011;2924;51.458;7.046;2024-02-21T11:16:36;7.17;;;3.30;;
5795;SDS011;2924;51.458;7.046;2024-02-21T11:19:04;3.80;;;2.60;;
5795;SDS011;2924;51.458;7.046;2024-02-21T11:21:34;5.47;;;2.40;;
5795;SDS011;2924;51.458;7.046;2024-02-21T11:24:04;9.50;;;3.20;;
5795;SDS011;2924;51.458;7.046;2024-02-21T11:26:30;5.97;;;3.13;;
5795;SDS011;2924;51.458;7.046;2024-02-21T11:28:57;3.10;;;2.63;;
5795;SDS011;2924;51.458;7.046;2024-02-21T11:31:24;8.67;;;3.23;;
5795;SDS011;2924;51.458;7.046;2024-02-21T11:33:52;5.43;;;3.13;;
5795;SDS011;2924;51.458;7.046;2024-02-21T11:36:25;5.77;;;2.70;;
5795;SDS011;2924;51.458;7.046;2024-02-21T11:38:51;7.10;;;2.90;;
5795;SDS011;2924;51.458;7.046;2024-02-21T11:41:18;22.57;;;3.53;;
5795;SDS011;2924;51.458;7.046;2024-02-21T11:43:43;9.00;;;2.70;;
5795;SDS011;2924;51.458;7.046;2024-02-21T11:46:09;3.97;;;3.10;;
5795;SDS011;2924;51.458;7.046;2024-02-21T11:48:35;15.17;;;3.10;;
5795;SDS011;2924;51.458;7.046;2024-02-21T11:51:00;5.53;;;3.30;;
5795;SDS011;2924;51.458;7.046;2024-02-21T11:53:28;9.80;;;3.67;;
5795;SDS011;2924;51.458;7.046;2024-02-21T11:55:55;9.80;;;3.20;;
5795;SDS011;2924;51.458;7.046;2024-02-21T11:58:21;7.83;;;3.00;;
5795;SDS011;2924;51.458;7.046;2024-02-21T12:00:47;8.80;;;3.87;;
5795;SDS011;2924;51.458;7.046;2024-02-21T12:03:13;14.07;;;3.80;;
5795;SDS011;2924;51.458;7.046;2024-02-21T12:05:41;4.70;;;3.00;;
5795;SDS011;2924;51.458;7.046;2024-02-21T12:08:06;8.97;;;2.90;;
5795;SDS011;2924;51.458;7.046;2024-02-21T12:10:32;7.83;;;3.10;;
5795;SDS011;2924;51.458;7.046;2024-02-21T12:13:06;7.53;;;4.23;;
5795;SDS011;2924;51.458;7.046;2024-02-21T12:15:35;7.13;;;3.10;;
5795;SDS011;2924;51.458;7.046;2024-02-21T12:18:01;10.47;;;2.77;;
5795;SDS011;2924;51.458;7.046;2024-02-21T12:20:27;5.90;;;2.90;;
5795;SDS011;2924;51.458;7.046;2024-02-21T12:22:52;4.83;;;2.53;;
5795;SDS011;2924;51.458;7.046;2024-02-21T12:25:22;7.40;;;2.87;;
5795;SDS011;2924;51.458;7.046;2024-02-21T12:27:48;6.33;;;2.33;;
5795;SDS011;2924;51.458;7.046;2024-02-21T12:30:14;6.07;;;2.50;;
5795;SDS011;2924;51.458;7.046;2024-02-21T12:32:40;9.10;;;3.00;;
5795;SDS011;2924;51.458;7.046;2024-02-21T12:35:07;5.63;;;2.20;;
5795;SDS011;2924;51.458;7.046;2024-02-21T12:37:33;5.63;;;2.27;;
5795;SDS011;2924;51.458;7.046;2024-02-21T12:39:59;8.57;;;3.63;;
5795;SDS011;2924;51.458;7.046;2024-02-21T12:42:25;5.07;;;2.27;;
5795;SDS011;2924;51.458;7.046;2024-02-21T12:44:51;9.20;;;2.53;;
5795;SDS011;2924;51.458;7.046;2024-02-21T12:47:20;10.40;;;2.80;;
5795;SDS011;2924;51.458;7.046;2024-02-21T12:49:48;5.13;;;1.90;;
5795;SDS011;2924;51.458;7.046;2024-02-21T12:52:14;8.70;;;2.60;;
5795;SDS011;2924;51.458;7.046;2024-02-21T12:54:40;7.83;;;2.00;;
5795;SDS011;2924;51.458;7.046;2024-02-21T12:57:05;12.43;;;2.80;;
5795;SDS011;2924;51.458;7.046;2024-02-21T12:59:31;3.77;;;1.90;;
5795;SDS011;2924;51.458;7.046;2024-02-21T13:01:57;15.43;;;3.17;;
5795;SDS011;2924;51.458;7.046;2024-02-21T13:04:22;7.83;;;2.10;;
5795;SDS011;2924;51.458;7.046;2024-02-21T13:06:48;6.70;;;2.40;;
5795;SDS011;2924;51.458;7.046;2024-02-21T13:09:14;5.60;;;2.43;;
5795;SDS011;2924;51.458;7.046;2024-02-21T13:11:40;10.57;;;2.03;;
5795;SDS011;2924;51.458;7.046;2024-02-21T13:14:07;6.10;;;2.20;;
5795;SDS011;2924;51.458;7.046;2024-02-21T13:16:32;8.63;;;2.43;;
5795;SDS011;2924;51.458;7.046;2024-02-21T13:19:04;7.03;;;2.43;;
5795;SDS011;2924;51.458;7.046;2024-02-21T13:21:33;10.13;;;2.77;;
5795;SDS011;2924;51.458;7.046;2024-02-21T13:23:59;7.00;;;1.87;;
5795;SDS011;2924;51.458;7.046;2024-02-21T13:26:25;11.13;;;3.10;;
5795;SDS011;2924;51.458;7.046;2024-02-21T13:28:51;5.87;;;2.00;;
5795;SDS011;2924;51.458;7.046;2024-02-21T13:31:16;5.70;;;2.17;;
5795;SDS011;2924;51.458;7.046;2024-02-21T13:33:42;5.40;;;2.07;;
5795;SDS011;2924;51.458;7.046;2024-02-21T13:36:09;5.37;;;2.17;;
5795;SDS011;2924;51.458;7.046;2024-02-21T13:38:35;13.20;;;3.73;;
5795;SDS011;2924;51.458;7.046;2024-02-21T13:41:01;2.97;;;1.77;;
5795;SDS011;2924;51.458;7.046;2024-02-21T13:43:26;9.50;;;2.03;;
5795;SDS011;2924;51.458;7.046;2024-02-21T13:45:56;5.70;;;2.50;;
5795;SDS011;2924;51.458;7.046;2024-02-21T13:48:25;7.43;;;2.20;;
5795;SDS011;2924;51.458;7.046;2024-02-21T13:50:52;6.00;;;2.33;;
5795;SDS011;2924;51.458;7.046;2024-02-21T13:53:17;11.70;;;2.87;;
5795;SDS011;2924;51.458;7.046;2024-02-21T13:55:44;5.50;;;1.80;;
5795;SDS011;2924;51.458;7.046;2024-02-21T13:58:10;3.37;;;1.83;;
5795;SDS011;2924;51.458;7.046;2024-02-21T14:00:35;7.70;;;2.27;;
5795;SDS011;2924;51.458;7.046;2024-02-21T14:03:01;8.80;;;2.30;;
5795;SDS011;2924;51.458;7.046;2024-02-21T14:05:27;10.07;;;2.57;;
5795;SDS011;2924;51.458;7.046;2024-02-21T14:07:52;8.83;;;2.60;;
5795;SDS011;2924;51.458;7.046;2024-02-21T14:10:19;4.63;;;2.27;;
5795;SDS011;2924;51.458;7.046;2024-02-21T14:12:45;11.13;;;2.87;;
5795;SDS011;2924;51.458;7.046;2024-02-21T14:15:12;9.43;;;2.13;;
5795;SDS011;2924;51.458;7.046;2024-02-21T14:17:38;8.57;;;2.27;;
5795;SDS011;2924;51.458;7.046;2024-02-21T14:20:04;5.20;;;2.10;;
5795;SDS011;2924;51.458;7.046;2024-02-21T14:22:31;7.00;;;2.00;;
5795;SDS011;2924;51.458;7.046;2024-02-21T14:24:57;4.47;;;1.90;;
5795;SDS011;2924;51.458;7.046;2024-02-21T14:27:22;5.53;;;2.00;;
5795;SDS011;2924;51.458;7.046;2024-02-21T14:29:48;16.43;;;2.10;;
5795;SDS011;2924;51.458;7.046;2024-02-21T14:32:13;8.60;;;2.60;;
5795;SDS011;2924;51.458;7.046;2024-02-21T14:34:39;5.07;;;2.03;;
5795;SDS011;2924;51.458;7.046;2024-02-21T14:37:04;8.20;;;1.77;;
5795;SDS011;2924;51.458;7.046;2024-02-21T14:39:30;9.17;;;1.90;;
5795;SDS011;2924;51.458;7.046;2024-02-21T14:41:57;4.17;;;1.80;;
5795;SDS011;2924;51.458;7.046;2024-02-21T14:44:24;6.73;;;2.50;;
5795;SDS011;2924;51.458;7.046;2024-02-21T14:46:50;9.17;;;2.60;;
5795;SDS011;2924;51.458;7.046;2024-02-21T14:49:16;9.37;;;2.20;;
5795;SDS011;2924;51.458;7.046;2024-02-21T14:51:42;4.57;;;2.30;;
5795;SDS011;2924;51.458;7.046;2024-02-21T14:54:07;8.13;;;2.67;;
5795;SDS011;2924;51.458;7.046;2024-02-21T14:56:33;9.00;;;2.60;;
5795;SDS011;2924;51.458;7.046;2024-02-21T14:58:59;10.33;;;2.13;;
5795;SDS011;2924;51.458;7.046;2024-02-21T15:01:24;5.33;;;2.80;;
5795;SDS011;2924;51.458;7.046;2024-02-21T15:03:50;4.33;;;2.17;;
5795;SDS011;2924;51.458;7.046;2024-02-21T15:06:16;8.37;;;2.57;;
5795;SDS011;2924;51.458;7.046;2024-02-21T15:08:42;5.07;;;2.80;;